sensor_id;sensor_type;location;lat;lon;timestamp;noise_LAeq;noise_LA_min;noise_LA_max;noise_LA01;noise_LA95
17594;Laerm;8916;47.086;15.920;2024-01-30T00:01:47;49.56;48.54;50.74;;
17594;Laerm;8916;47.086;15.920;2024-01-30T00:04:16;49.56;48.58;50.61;;
17594;Laerm;8916;47.086;15.920;2024-01-30T00:06:47;49.55;48.43;50.56;;
17594;Laerm;8916;47.086;15.920;2024-01-30T00:09:16;49.56;48.60;50.63;;
17594;Laerm;8916;47.086;15.920;2024-01-30T00:11:45;49.55;48.55;50.97;;
17594;Laerm;8916;47.086;15.920;2024-01-30T00:14:14;49.56;48.42;50.63;;
17594;Laerm;8916;47.086;15.920;2024-01-30T00:16:43;49.55;48.55;50.64;;
17594;Laerm;8916;47.086;15.920;2024-01-30T00:19:13;49.56;48.43;50.70;;
17594;Laerm;8916;47.086;15.920;2024-01-30T00:21:42;49.57;48.51;50.66;;
17594;Laerm;8916;47.086;15.920;2024-01-30T00:24:12;49.56;48.40;50.71;;
17594;Laerm;8916;47.086;15.920;2024-01-30T00:26:42;49.57;48.31;50.63;;
17594;Laerm;8916;47.086;15.920;2024-01-30T00:29:11;49.56;48.57;50.70;;
17594;Laerm;8916;47.086;15.920;2024-01-30T00:31:40;49.57;48.52;50.56;;
17594;Laerm;8916;47.086;15.920;2024-01-30T00:34:09;49.57;48.57;51.16;;
17594;Laerm;8916;47.086;15.920;2024-01-30T00:36:38;49.57;48.29;50.89;;
17594;Laerm;8916;47.086;15.920;2024-01-30T00:39:07;49.58;48.48;50.58;;
17594;Laerm;8916;47.086;15.920;2024-01-30T00:41:38;49.58;48.28;50.71;;
17594;Laerm;8916;47.086;15.920;2024-01-30T00:44:07;49.58;48.51;50.71;;
17594;Laerm;8916;47.086;15.920;2024-01-30T00:46:36;49.56;48.49;50.60;;
17594;Laerm;8916;47.086;15.920;2024-01-30T00:49:05;49.59;48.60;50.63;;
17594;Laerm;8916;47.086;15.920;2024-01-30T00:51:35;49.58;48.55;50.61;;
17594;Laerm;8916;47.086;15.920;2024-01-30T00:54:04;49.59;48.40;50.70;;
17594;Laerm;8916;47.086;15.920;2024-01-30T00:56:34;49.59;48.32;50.68;;
17594;Laerm;8916;47.086;15.920;2024-01-30T00:59:04;49.59;48.49;50.80;;
17594;Laerm;8916;47.086;15.920;2024-01-30T01:01:33;49.58;48.55;50.70;;
17594;Laerm;8916;47.086;15.920;2024-01-30T01:04:03;49.59;48.55;50.64;;
17594;Laerm;8916;47.086;15.920;2024-01-30T01:06:32;49.58;48.42;50.71;;
17594;Laerm;8916;47.086;15.920;2024-01-30T01:09:01;49.59;48.49;50.71;;
17594;Laerm;8916;47.086;15.920;2024-01-30T01:11:32;49.59;48.25;50.66;;
17594;Laerm;8916;47.086;15.920;2024-01-30T01:14:01;49.59;48.51;50.68;;
17594;Laerm;8916;47.086;15.920;2024-01-30T01:16:32;49.59;48.39;50.55;;
17594;Laerm;8916;47.086;15.920;2024-01-30T01:19:01;49.59;48.55;50.69;;
17594;Laerm;8916;47.086;15.920;2024-01-30T01:21:31;49.59;48.60;50.75;;
17594;Laerm;8916;47.086;15.920;2024-01-30T01:24:00;49.59;48.42;50.69;;
17594;Laerm;8916;47.086;15.920;2024-01-30T01:26:29;49.61;48.39;50.77;;
17594;Laerm;8916;47.086;15.920;2024-01-30T01:28:58;49.60;48.28;50.56;;
17594;Laerm;8916;47.086;15.920;2024-01-30T01:31:27;49.60;48.42;50.79;;
17594;Laerm;8916;47.086;15.920;2024-01-30T01:33:59;49.59;48.49;50.83;;
17594;Laerm;8916;47.086;15.920;2024-01-30T01:36:28;49.60;48.64;50.59;;
17594;Laerm;8916;47.086;15.920;2024-01-30T01:38:57;49.59;48.45;50.68;;
17594;Laerm;8916;47.086;15.920;2024-01-30T01:41:30;49.60;48.63;50.93;;
17594;Laerm;8916;47.086;15.920;2024-01-30T01:43:59;49.60;48.63;50.71;;
17594;Laerm;8916;47.086;15.920;2024-01-30T01:46:32;49.59;48.63;50.71;;
17594;Laerm;8916;47.086;15.920;2024-01-30T01:49:05;49.60;48.58;50.89;;
17594;Laerm;8916;47.086;15.920;2024-01-30T01:51:36;49.61;48.45;50.95;;
17594;Laerm;8916;47.086;15.920;2024-01-30T01:54:06;49.61;48.28;50.62;;
17594;Laerm;8916;47.086;15.920;2024-01-30T01:56:35;49.59;48.43;50.63;;
17594;Laerm;8916;47.086;15.920;2024-01-30T01:59:07;49.61;48.49;50.51;;
17594;Laerm;8916;47.086;15.920;2024-01-30T02:01:37;49.59;48.25;50.69;;
17594;Laerm;8916;47.086;15.920;2024-01-30T02:04:08;49.60;48.42;50.70;;
17594;Laerm;8916;47.086;15.920;2024-01-30T02:06:38;49.61;48.45;50.86;;
17594;Laerm;8916;47.086;15.920;2024-01-30T02:09:07;49.60;48.12;50.79;;
17594;Laerm;8916;47.086;15.920;2024-01-30T02:11:37;49.60;48.55;50.76;;
17594;Laerm;8916;47.086;15.920;2024-01-30T02:14:06;49.60;48.37;50.95;;
17594;Laerm;8916;47.086;15.920;2024-01-30T02:16:35;49.61;48.54;50.68;;
17594;Laerm;8916;47.086;15.920;2024-01-30T02:19:05;49.61;48.66;50.65;;
17594;Laerm;8916;47.086;15.920;2024-01-30T02:21:37;49.61;48.46;50.60;;
17594;Laerm;8916;47.086;15.920;2024-01-30T02:24:06;49.61;48.54;50.60;;
17594;Laerm;8916;47.086;15.920;2024-01-30T02:26:35;49.60;48.31;50.73;;
17594;Laerm;8916;47.086;15.920;2024-01-30T02:29:04;49.61;48.52;50.73;;
17594;Laerm;8916;47.086;15.920;2024-01-30T02:31:33;49.62;48.58;50.88;;
17594;Laerm;8916;47.086;15.920;2024-01-30T02:34:02;49.62;48.55;50.67;;
17594;Laerm;8916;47.086;15.920;2024-01-30T02:36:32;49.62;48.76;50.66;;
17594;Laerm;8916;47.086;15.920;2024-01-30T02:39:03;49.62;48.57;50.72;;
17594;Laerm;8916;47.086;15.920;2024-01-30T02:41:32;49.62;48.51;50.85;;
17594;Laerm;8916;47.086;15.920;2024-01-30T02:44:02;49.62;48.34;51.00;;
17594;Laerm;8916;47.086;15.920;2024-01-30T02:46:31;49.60;48.43;50.87;;
17594;Laerm;8916;47.086;15.920;2024-01-30T02:49:00;49.62;48.67;50.69;;
17594;Laerm;8916;47.086;15.920;2024-01-30T02:51:29;49.63;48.43;50.64;;
17594;Laerm;8916;47.086;15.920;2024-01-30T02:53:58;49.64;48.70;50.65;;
17594;Laerm;8916;47.086;15.920;2024-01-30T02:56:29;49.63;48.67;50.78;;
17594;Laerm;8916;47.086;15.920;2024-01-30T02:58:58;49.63;48.52;50.77;;
17594;Laerm;8916;47.086;15.920;2024-01-30T03:01:27;49.63;48.46;50.85;;
17594;Laerm;8916;47.086;15.920;2024-01-30T03:03:56;49.63;48.46;50.74;;
17594;Laerm;8916;47.086;15.920;2024-01-30T03:06:25;49.63;48.61;50.68;;
17594;Laerm;8916;47.086;15.920;2024-01-30T03:08:54;49.63;48.57;50.60;;
17594;Laerm;8916;47.086;15.920;2024-01-30T03:11:23;49.63;48.54;50.67;;
17594;Laerm;8916;47.086;15.920;2024-01-30T03:13:54;49.63;48.45;51.03;;
17594;Laerm;8916;47.086;15.920;2024-01-30T03:16:23;49.62;48.31;50.87;;
17594;Laerm;8916;47.086;15.920;2024-01-30T03:18:53;49.63;48.37;51.03;;
17594;Laerm;8916;47.086;15.920;2024-01-30T03:21:22;49.62;48.49;50.65;;
17594;Laerm;8916;47.086;15.920;2024-01-30T03:23:51;49.62;48.49;50.69;;
17594;Laerm;8916;47.086;15.920;2024-01-30T03:26:21;49.63;48.43;50.76;;
17594;Laerm;8916;47.086;15.920;2024-01-30T03:28:50;49.63;48.28;50.83;;
17594;Laerm;8916;47.086;15.920;2024-01-30T03:31:20;49.62;48.61;50.67;;
17594;Laerm;8916;47.086;15.920;2024-01-30T03:33:50;49.63;48.46;50.73;;
17594;Laerm;8916;47.086;15.920;2024-01-30T03:36:19;49.63;48.55;50.68;;
17594;Laerm;8916;47.086;15.920;2024-01-30T03:38:48;49.62;48.60;50.79;;
17594;Laerm;8916;47.086;15.920;2024-01-30T03:41:18;49.63;48.48;50.73;;
17594;Laerm;8916;47.086;15.920;2024-01-30T03:43:47;49.62;48.48;50.70;;
17594;Laerm;8916;47.086;15.920;2024-01-30T03:46:16;49.63;48.43;50.67;;
17594;Laerm;8916;47.086;15.920;2024-01-30T03:48:46;49.63;48.54;50.77;;
17594;Laerm;8916;47.086;15.920;2024-01-30T03:51:16;49.62;48.52;50.71;;
17594;Laerm;8916;47.086;15.920;2024-01-30T03:53:45;49.63;48.61;50.89;;
17594;Laerm;8916;47.086;15.920;2024-01-30T03:56:14;49.63;48.64;50.68;;
17594;Laerm;8916;47.086;15.920;2024-01-30T03:58:43;49.63;48.61;50.68;;
17594;Laerm;8916;47.086;15.920;2024-01-30T04:01:16;49.63;48.59;50.68;;
17594;Laerm;8916;47.086;15.920;2024-01-30T04:03:46;49.63;48.52;50.77;;
17594;Laerm;8916;47.086;15.920;2024-01-30T04:06:15;49.64;48.58;50.87;;
17594;Laerm;8916;47.086;15.920;2024-01-30T04:08:44;49.63;48.49;50.93;;
17594;Laerm;8916;47.086;15.920;2024-01-30T04:11:14;49.63;48.61;50.64;;
17594;Laerm;8916;47.086;15.920;2024-01-30T04:13:43;49.64;48.36;50.68;;
17594;Laerm;8916;47.086;15.920;2024-01-30T04:16:19;49.64;48.58;50.87;;
17594;Laerm;8916;47.086;15.920;2024-01-30T04:18:51;49.65;48.43;50.74;;
17594;Laerm;8916;47.086;15.920;2024-01-30T04:21:21;49.65;48.60;51.03;;
17594;Laerm;8916;47.086;15.920;2024-01-30T04:23:51;49.64;48.40;50.63;;
17594;Laerm;8916;47.086;15.920;2024-01-30T04:26:20;49.65;48.51;50.90;;
17594;Laerm;8916;47.086;15.920;2024-01-30T04:28:49;49.63;48.49;50.68;;
17594;Laerm;8916;47.086;15.920;2024-01-30T04:31:18;49.64;48.61;50.82;;
17594;Laerm;8916;47.086;15.920;2024-01-30T04:33:47;49.64;48.63;50.77;;
17594;Laerm;8916;47.086;15.920;2024-01-30T04:36:18;49.65;48.58;51.01;;
17594;Laerm;8916;47.086;15.920;2024-01-30T04:38:47;49.64;48.61;50.91;;
17594;Laerm;8916;47.086;15.920;2024-01-30T04:41:16;49.64;48.54;50.58;;
17594;Laerm;8916;47.086;15.920;2024-01-30T04:43:45;49.63;48.51;50.65;;
17594;Laerm;8916;47.086;15.920;2024-01-30T04:46:14;49.63;48.51;50.66;;
17594;Laerm;8916;47.086;15.920;2024-01-30T04:48:43;49.63;48.55;50.90;;
17594;Laerm;8916;47.086;15.920;2024-01-30T04:51:13;49.64;48.42;50.70;;
17594;Laerm;8916;47.086;15.920;2024-01-30T04:53:43;49.63;48.61;50.77;;
17594;Laerm;8916;47.086;15.920;2024-01-30T04:56:12;49.64;48.37;50.74;;
17594;Laerm;8916;47.086;15.920;2024-01-30T04:58:41;49.64;48.37;50.71;;
17594;Laerm;8916;47.086;15.920;2024-01-30T05:01:15;49.64;48.70;50.72;;
17594;Laerm;8916;47.086;15.920;2024-01-30T05:03:45;49.63;48.51;50.74;;
17594;Laerm;8916;47.086;15.920;2024-01-30T05:06:24;49.63;48.45;50.76;;
17594;Laerm;8916;47.086;15.920;2024-01-30T05:08:55;49.64;48.69;50.93;;
17594;Laerm;8916;47.086;15.920;2024-01-30T05:11:24;49.64;48.58;50.69;;
17594;Laerm;8916;47.086;15.920;2024-01-30T05:13:53;49.64;48.58;50.77;;
17594;Laerm;8916;47.086;15.920;2024-01-30T05:16:23;49.64;48.67;50.72;;
17594;Laerm;8916;47.086;15.920;2024-01-30T05:18:52;49.64;48.46;50.69;;
17594;Laerm;8916;47.086;15.920;2024-01-30T05:21:21;49.65;48.66;50.73;;
17594;Laerm;8916;47.086;15.920;2024-01-30T05:23:50;49.64;48.48;50.76;;
17594;Laerm;8916;47.086;15.920;2024-01-30T05:26:21;49.65;48.58;50.79;;
17594;Laerm;8916;47.086;15.920;2024-01-30T05:28:50;49.64;48.49;50.77;;
17594;Laerm;8916;47.086;15.920;2024-01-30T05:31:19;49.64;48.58;50.64;;
17594;Laerm;8916;47.086;15.920;2024-01-30T05:33:51;49.65;48.45;50.78;;
17594;Laerm;8916;47.086;15.920;2024-01-30T05:36:20;49.64;48.58;50.58;;
17594;Laerm;8916;47.086;15.920;2024-01-30T05:38:49;49.65;48.49;50.66;;
17594;Laerm;8916;47.086;15.920;2024-01-30T05:41:20;49.64;48.36;50.86;;
17594;Laerm;8916;47.086;15.920;2024-01-30T05:43:50;49.64;48.32;50.74;;
17594;Laerm;8916;47.086;15.920;2024-01-30T05:46:22;49.65;48.52;50.69;;
17594;Laerm;8916;47.086;15.920;2024-01-30T05:48:52;49.64;48.54;50.85;;
17594;Laerm;8916;47.086;15.920;2024-01-30T05:51:22;49.65;48.60;50.79;;
17594;Laerm;8916;47.086;15.920;2024-01-30T05:53:52;49.65;48.52;50.77;;
17594;Laerm;8916;47.086;15.920;2024-01-30T05:56:23;49.63;48.42;50.67;;
17594;Laerm;8916;47.086;15.920;2024-01-30T05:58:53;49.66;48.67;50.75;;
17594;Laerm;8916;47.086;15.920;2024-01-30T06:01:23;49.64;48.53;50.90;;
17594;Laerm;8916;47.086;15.920;2024-01-30T06:03:53;49.64;48.45;50.64;;
17594;Laerm;8916;47.086;15.920;2024-01-30T06:06:23;49.65;48.43;50.92;;
17594;Laerm;8916;47.086;15.920;2024-01-30T06:08:53;49.65;48.55;50.68;;
17594;Laerm;8916;47.086;15.920;2024-01-30T06:11:25;49.65;48.55;50.68;;
17594;Laerm;8916;47.086;15.920;2024-01-30T06:13:55;49.65;48.54;50.65;;
17594;Laerm;8916;47.086;15.920;2024-01-30T06:16:24;49.66;48.52;50.78;;
17594;Laerm;8916;47.086;15.920;2024-01-30T06:18:57;49.66;48.58;50.88;;
17594;Laerm;8916;47.086;15.920;2024-01-30T06:21:28;49.65;48.63;50.85;;
17594;Laerm;8916;47.086;15.920;2024-01-30T06:23:58;49.66;48.58;50.61;;
17594;Laerm;8916;47.086;15.920;2024-01-30T06:26:30;49.66;48.55;50.81;;
17594;Laerm;8916;47.086;15.920;2024-01-30T06:28:59;49.66;48.60;50.75;;
17594;Laerm;8916;47.086;15.920;2024-01-30T06:31:29;49.67;48.55;50.55;;
17594;Laerm;8916;47.086;15.920;2024-01-30T06:33:59;49.67;48.59;50.75;;
17594;Laerm;8916;47.086;15.920;2024-01-30T06:36:29;49.65;48.55;50.65;;
17594;Laerm;8916;47.086;15.920;2024-01-30T06:38:59;49.65;48.63;50.68;;
17594;Laerm;8916;47.086;15.920;2024-01-30T06:41:30;49.64;48.38;50.70;;
17594;Laerm;8916;47.086;15.920;2024-01-30T06:44:01;49.64;48.66;50.82;;
17594;Laerm;8916;47.086;15.920;2024-01-30T06:46:30;49.64;48.63;50.68;;
17594;Laerm;8916;47.086;15.920;2024-01-30T06:49:00;49.63;48.43;50.56;;
17594;Laerm;8916;47.086;15.920;2024-01-30T06:51:30;49.63;48.54;50.72;;
17594;Laerm;8916;47.086;15.920;2024-01-30T06:54:00;49.62;48.36;50.85;;
17594;Laerm;8916;47.086;15.920;2024-01-30T06:56:31;49.62;48.34;50.65;;
17594;Laerm;8916;47.086;15.920;2024-01-30T06:59:01;49.61;48.43;50.88;;
17594;Laerm;8916;47.086;15.920;2024-01-30T07:01:31;49.60;48.51;50.68;;
17594;Laerm;8916;47.086;15.920;2024-01-30T07:04:00;49.60;48.55;50.67;;
17594;Laerm;8916;47.086;15.920;2024-01-30T07:06:30;49.60;48.54;50.63;;
17594;Laerm;8916;47.086;15.920;2024-01-30T07:08:59;49.60;48.34;50.75;;
17594;Laerm;8916;47.086;15.920;2024-01-30T07:11:30;49.59;48.51;50.69;;
17594;Laerm;8916;47.086;15.920;2024-01-30T07:14:00;49.57;48.49;50.60;;
17594;Laerm;8916;47.086;15.920;2024-01-30T07:16:31;49.58;48.12;50.74;;
17594;Laerm;8916;47.086;15.920;2024-01-30T07:19:01;49.56;48.46;50.60;;
17594;Laerm;8916;47.086;15.920;2024-01-30T07:21:31;49.55;48.21;50.56;;
17594;Laerm;8916;47.086;15.920;2024-01-30T07:24:00;49.54;48.29;50.68;;
17594;Laerm;8916;47.086;15.920;2024-01-30T07:26:32;49.54;48.31;50.83;;
17594;Laerm;8916;47.086;15.920;2024-01-30T07:29:01;49.53;48.51;50.67;;
17594;Laerm;8916;47.086;15.920;2024-01-30T07:31:32;49.52;48.49;50.65;;
17594;Laerm;8916;47.086;15.920;2024-01-30T07:34:01;49.53;48.54;50.74;;
17594;Laerm;8916;47.086;15.920;2024-01-30T07:36:32;49.53;48.31;50.74;;
17594;Laerm;8916;47.086;15.920;2024-01-30T07:39:01;49.53;48.20;50.50;;
17594;Laerm;8916;47.086;15.920;2024-01-30T07:41:33;49.51;48.40;50.76;;
17594;Laerm;8916;47.086;15.920;2024-01-30T07:44:03;49.52;48.16;50.74;;
17594;Laerm;8916;47.086;15.920;2024-01-30T07:46:33;49.51;48.46;50.58;;
17594;Laerm;8916;47.086;15.920;2024-01-30T07:49:02;49.48;48.45;50.80;;
17594;Laerm;8916;47.086;15.920;2024-01-30T07:51:32;49.50;48.40;50.67;;
17594;Laerm;8916;47.086;15.920;2024-01-30T07:54:01;49.48;48.48;50.50;;
17594;Laerm;8916;47.086;15.920;2024-01-30T07:56:30;49.47;48.54;50.48;;
17594;Laerm;8916;47.086;15.920;2024-01-30T07:59:01;49.47;48.34;50.68;;
17594;Laerm;8916;47.086;15.920;2024-01-30T08:01:30;49.47;48.45;50.37;;
17594;Laerm;8916;47.086;15.920;2024-01-30T08:03:59;49.45;48.34;50.85;;
17594;Laerm;8916;47.086;15.920;2024-01-30T08:06:29;49.45;48.37;50.56;;
17594;Laerm;8916;47.086;15.920;2024-01-30T08:08:58;49.46;48.40;50.74;;
17594;Laerm;8916;47.086;15.920;2024-01-30T08:11:27;49.45;48.43;50.54;;
17594;Laerm;8916;47.086;15.920;2024-01-30T08:13:57;49.44;48.36;50.56;;
17594;Laerm;8916;47.086;15.920;2024-01-30T08:16:27;49.42;48.42;50.53;;
17594;Laerm;8916;47.086;15.920;2024-01-30T08:18:57;49.37;48.10;50.62;;
17594;Laerm;8916;47.086;15.920;2024-01-30T08:21:26;49.32;48.18;50.38;;
17594;Laerm;8916;47.086;15.920;2024-01-30T08:23:55;49.31;48.26;50.37;;
17594;Laerm;8916;47.086;15.920;2024-01-30T08:26:24;49.29;48.15;50.35;;
17594;Laerm;8916;47.086;15.920;2024-01-30T08:28:53;49.29;48.28;50.49;;
17594;Laerm;8916;47.086;15.920;2024-01-30T08:31:23;49.28;48.08;50.35;;
17594;Laerm;8916;47.086;15.920;2024-01-30T08:33:53;49.26;48.15;50.36;;
17594;Laerm;8916;47.086;15.920;2024-01-30T08:36:23;49.27;48.25;50.35;;
17594;Laerm;8916;47.086;15.920;2024-01-30T08:38:52;49.24;48.25;50.45;;
17594;Laerm;8916;47.086;15.920;2024-01-30T08:41:27;49.24;48.25;50.37;;
17594;Laerm;8916;47.086;15.920;2024-01-30T08:43:56;49.24;48.18;50.49;;
17594;Laerm;8916;47.086;15.920;2024-01-30T08:46:25;49.24;48.23;50.54;;
17594;Laerm;8916;47.086;15.920;2024-01-30T08:48:56;49.24;48.10;50.36;;
17594;Laerm;8916;47.086;15.920;2024-01-30T08:51:25;49.23;47.98;50.44;;
17594;Laerm;8916;47.086;15.920;2024-01-30T08:53:55;49.23;48.18;50.58;;
17594;Laerm;8916;47.086;15.920;2024-01-30T08:56:24;49.24;48.12;50.45;;
17594;Laerm;8916;47.086;15.920;2024-01-30T08:58:53;49.23;48.21;50.48;;
17594;Laerm;8916;47.086;15.920;2024-01-30T09:01:22;49.22;48.16;50.32;;
17594;Laerm;8916;47.086;15.920;2024-01-30T09:03:51;49.20;48.00;50.24;;
17594;Laerm;8916;47.086;15.920;2024-01-30T09:06:22;49.21;48.10;50.36;;
17594;Laerm;8916;47.086;15.920;2024-01-30T09:08:51;49.22;48.18;50.49;;
17594;Laerm;8916;47.086;15.920;2024-01-30T09:11:20;49.21;48.20;50.33;;
17594;Laerm;8916;47.086;15.920;2024-01-30T09:13:50;49.20;47.95;50.28;;
17594;Laerm;8916;47.086;15.920;2024-01-30T09:16:19;49.20;48.10;50.26;;
17594;Laerm;8916;47.086;15.920;2024-01-30T09:18:48;49.19;48.05;50.23;;
17594;Laerm;8916;47.086;15.920;2024-01-30T09:21:17;49.22;48.16;50.45;;
17594;Laerm;8916;47.086;15.920;2024-01-30T09:23:48;49.21;48.15;50.39;;
17594;Laerm;8916;47.086;15.920;2024-01-30T09:26:17;49.19;48.18;50.40;;
17594;Laerm;8916;47.086;15.920;2024-01-30T09:28:46;49.17;47.88;50.16;;
17594;Laerm;8916;47.086;15.920;2024-01-30T09:31:15;49.16;48.00;50.37;;
17594;Laerm;8916;47.086;15.920;2024-01-30T09:33:46;49.14;48.03;50.43;;
17594;Laerm;8916;47.086;15.920;2024-01-30T09:36:17;49.15;48.02;50.23;;
17594;Laerm;8916;47.086;15.920;2024-01-30T09:38:49;49.15;48.12;50.23;;
17594;Laerm;8916;47.086;15.920;2024-01-30T09:41:19;49.13;48.10;50.48;;
17594;Laerm;8916;47.086;15.920;2024-01-30T09:43:48;49.11;48.03;50.38;;
17594;Laerm;8916;47.086;15.920;2024-01-30T09:46:21;49.10;48.13;50.19;;
17594;Laerm;8916;47.086;15.920;2024-01-30T09:48:52;49.11;47.91;50.20;;
17594;Laerm;8916;47.086;15.920;2024-01-30T09:51:22;49.11;47.98;50.29;;
17594;Laerm;8916;47.086;15.920;2024-01-30T09:53:54;49.10;48.03;50.24;;
17594;Laerm;8916;47.086;15.920;2024-01-30T09:56:23;49.09;47.93;50.31;;
17594;Laerm;8916;47.086;15.920;2024-01-30T09:58:52;49.11;48.10;50.29;;
17594;Laerm;8916;47.086;15.920;2024-01-30T10:01:22;49.09;47.86;50.31;;
17594;Laerm;8916;47.086;15.920;2024-01-30T10:03:52;49.08;47.83;50.49;;
17594;Laerm;8916;47.086;15.920;2024-01-30T10:06:21;49.06;48.00;50.28;;
17594;Laerm;8916;47.086;15.920;2024-01-30T10:08:51;49.06;48.00;50.25;;
17594;Laerm;8916;47.086;15.920;2024-01-30T10:11:22;49.08;47.96;50.29;;
17594;Laerm;8916;47.086;15.920;2024-01-30T10:13:54;49.07;48.08;50.22;;
17594;Laerm;8916;47.086;15.920;2024-01-30T10:16:23;49.06;47.98;50.25;;
17594;Laerm;8916;47.086;15.920;2024-01-30T10:18:52;49.04;47.77;50.28;;
17594;Laerm;8916;47.086;15.920;2024-01-30T10:21:22;49.06;47.95;50.08;;
17594;Laerm;8916;47.086;15.920;2024-01-30T10:23:52;49.08;47.90;50.20;;
17594;Laerm;8916;47.086;15.920;2024-01-30T10:26:23;49.08;48.07;50.16;;
17594;Laerm;8916;47.086;15.920;2024-01-30T10:28:52;49.07;47.79;50.23;;
17594;Laerm;8916;47.086;15.920;2024-01-30T10:31:21;49.08;47.95;50.23;;
17594;Laerm;8916;47.086;15.920;2024-01-30T10:33:52;49.14;48.07;50.19;;
17594;Laerm;8916;47.086;15.920;2024-01-30T10:36:40;49.18;48.10;50.19;;
17594;Laerm;8916;47.086;15.920;2024-01-30T10:39:09;49.20;48.10;50.28;;
17594;Laerm;8916;47.086;15.920;2024-01-30T10:41:43;49.21;48.02;50.31;;
17594;Laerm;8916;47.086;15.920;2024-01-30T10:44:18;49.21;48.05;50.30;;
17594;Laerm;8916;47.086;15.920;2024-01-30T10:46:54;49.23;48.25;50.47;;
17594;Laerm;8916;47.086;15.920;2024-01-30T10:49:27;49.23;48.18;50.74;;
17594;Laerm;8916;47.086;15.920;2024-01-30T10:51:58;49.23;48.08;50.28;;
17594;Laerm;8916;47.086;15.920;2024-01-30T10:54:29;49.24;48.18;50.27;;
17594;Laerm;8916;47.086;15.920;2024-01-30T10:57:01;49.23;48.05;50.46;;
17594;Laerm;8916;47.086;15.920;2024-01-30T10:59:33;49.24;48.23;50.47;;
17594;Laerm;8916;47.086;15.920;2024-01-30T11:02:02;49.23;48.21;50.50;;
17594;Laerm;8916;47.086;15.920;2024-01-30T11:04:36;49.23;48.13;50.24;;
17594;Laerm;8916;47.086;15.920;2024-01-30T11:07:14;49.23;48.07;50.91;;
17594;Laerm;8916;47.086;15.920;2024-01-30T11:09:51;49.23;48.07;50.26;;
17594;Laerm;8916;47.086;15.920;2024-01-30T11:12:26;49.23;47.93;50.25;;
17594;Laerm;8916;47.086;15.920;2024-01-30T11:15:07;49.23;48.05;50.45;;
17594;Laerm;8916;47.086;15.920;2024-01-30T11:17:44;49.23;48.05;50.78;;
17594;Laerm;8916;47.086;15.920;2024-01-30T11:20:15;49.22;48.07;50.49;;
17594;Laerm;8916;47.086;15.920;2024-01-30T11:22:49;49.21;47.96;50.37;;
17594;Laerm;8916;47.086;15.920;2024-01-30T11:25:21;49.21;48.16;50.30;;
17594;Laerm;8916;47.086;15.920;2024-01-30T11:27:53;49.21;48.07;50.47;;
17594;Laerm;8916;47.086;15.920;2024-01-30T11:30:24;49.20;48.07;50.34;;
17594;Laerm;8916;47.086;15.920;2024-01-30T11:33:01;49.20;48.18;50.30;;
17594;Laerm;8916;47.086;15.920;2024-01-30T11:35:35;49.20;48.00;50.67;;
17594;Laerm;8916;47.086;15.920;2024-01-30T11:38:05;49.20;47.93;50.40;;
17594;Laerm;8916;47.086;15.920;2024-01-30T11:40:37;49.18;48.07;50.23;;
17594;Laerm;8916;47.086;15.920;2024-01-30T11:43:09;49.15;48.08;50.40;;
17594;Laerm;8916;47.086;15.920;2024-01-30T11:45:39;49.11;48.10;50.16;;
17594;Laerm;8916;47.086;15.920;2024-01-30T11:48:08;49.10;47.91;50.28;;
17594;Laerm;8916;47.086;15.920;2024-01-30T11:50:39;49.12;47.88;50.15;;
17594;Laerm;8916;47.086;15.920;2024-01-30T11:53:09;49.15;48.03;50.28;;
17594;Laerm;8916;47.086;15.920;2024-01-30T11:55:38;49.15;48.07;50.43;;
17594;Laerm;8916;47.086;15.920;2024-01-30T11:58:09;49.12;47.83;50.38;;
17594;Laerm;8916;47.086;15.920;2024-01-30T12:00:38;49.12;47.96;50.51;;
17594;Laerm;8916;47.086;15.920;2024-01-30T12:03:07;49.10;47.91;50.22;;
17594;Laerm;8916;47.086;15.920;2024-01-30T12:05:37;49.08;48.02;50.27;;
17594;Laerm;8916;47.086;15.920;2024-01-30T12:08:15;49.08;47.96;50.76;;
17594;Laerm;8916;47.086;15.920;2024-01-30T12:10:44;49.12;48.08;50.24;;
17594;Laerm;8916;47.086;15.920;2024-01-30T12:13:15;49.14;48.07;50.38;;
17594;Laerm;8916;47.086;15.920;2024-01-30T12:15:45;49.11;48.05;50.38;;
17594;Laerm;8916;47.086;15.920;2024-01-30T12:18:14;49.11;47.95;50.26;;
17594;Laerm;8916;47.086;15.920;2024-01-30T12:20:43;49.14;48.10;50.37;;
17594;Laerm;8916;47.086;15.920;2024-01-30T12:23:13;49.13;47.86;50.13;;
17594;Laerm;8916;47.086;15.920;2024-01-30T12:25:42;49.11;48.05;50.26;;
17594;Laerm;8916;47.086;15.920;2024-01-30T12:28:11;49.09;47.91;50.26;;
17594;Laerm;8916;47.086;15.920;2024-01-30T12:30:42;49.12;47.95;50.19;;
17594;Laerm;8916;47.086;15.920;2024-01-30T12:33:16;49.09;47.88;50.26;;
17594;Laerm;8916;47.086;15.920;2024-01-30T12:35:46;49.09;48.12;50.35;;
17594;Laerm;8916;47.086;15.920;2024-01-30T12:38:29;49.11;48.00;50.44;;
17594;Laerm;8916;47.086;15.920;2024-01-30T12:40:58;49.10;47.91;50.34;;
17594;Laerm;8916;47.086;15.920;2024-01-30T12:43:29;49.07;47.88;50.14;;
17594;Laerm;8916;47.086;15.920;2024-01-30T12:46:07;49.08;48.13;50.20;;
17594;Laerm;8916;47.086;15.920;2024-01-30T12:48:36;49.10;48.02;50.23;;
17594;Laerm;8916;47.086;15.920;2024-01-30T12:51:06;49.11;47.90;50.34;;
17594;Laerm;8916;47.086;15.920;2024-01-30T12:53:35;49.10;48.02;50.32;;
17594;Laerm;8916;47.086;15.920;2024-01-30T12:56:04;49.11;47.95;50.46;;
17594;Laerm;8916;47.086;15.920;2024-01-30T12:58:33;49.10;48.02;50.59;;
17594;Laerm;8916;47.086;15.920;2024-01-30T13:01:03;49.11;47.90;50.44;;
17594;Laerm;8916;47.086;15.920;2024-01-30T13:03:34;49.10;48.07;50.34;;
17594;Laerm;8916;47.086;15.920;2024-01-30T13:06:05;49.05;47.91;50.44;;
17594;Laerm;8916;47.086;15.920;2024-01-30T13:08:34;49.03;47.84;50.05;;
17594;Laerm;8916;47.086;15.920;2024-01-30T13:11:03;49.00;47.83;50.15;;
17594;Laerm;8916;47.086;15.920;2024-01-30T13:13:32;49.00;47.77;50.09;;
17594;Laerm;8916;47.086;15.920;2024-01-30T13:16:04;49.00;47.90;50.18;;
17594;Laerm;8916;47.086;15.920;2024-01-30T13:18:35;48.97;47.84;50.17;;
17594;Laerm;8916;47.086;15.920;2024-01-30T13:21:04;49.00;47.96;50.12;;
17594;Laerm;8916;47.086;15.920;2024-01-30T13:23:33;49.01;48.02;50.28;;
17594;Laerm;8916;47.086;15.920;2024-01-30T13:26:02;49.00;47.84;50.16;;
17594;Laerm;8916;47.086;15.920;2024-01-30T13:28:31;49.04;47.96;50.24;;
17594;Laerm;8916;47.086;15.920;2024-01-30T13:31:01;49.03;47.96;50.26;;
17594;Laerm;8916;47.086;15.920;2024-01-30T13:33:31;49.04;47.86;50.18;;
17594;Laerm;8916;47.086;15.920;2024-01-30T13:36:02;49.02;47.95;50.14;;
17594;Laerm;8916;47.086;15.920;2024-01-30T13:38:31;48.99;47.90;50.12;;
17594;Laerm;8916;47.086;15.920;2024-01-30T13:41:01;48.94;47.79;50.20;;
17594;Laerm;8916;47.086;15.920;2024-01-30T13:43:30;48.95;47.95;50.46;;
17594;Laerm;8916;47.086;15.920;2024-01-30T13:46:00;48.96;47.88;50.15;;
17594;Laerm;8916;47.086;15.920;2024-01-30T13:48:29;48.99;47.88;50.20;;
17594;Laerm;8916;47.086;15.920;2024-01-30T13:50:58;49.02;47.96;50.24;;
17594;Laerm;8916;47.086;15.920;2024-01-30T13:53:29;49.02;47.91;50.60;;
17594;Laerm;8916;47.086;15.920;2024-01-30T13:55:58;48.97;47.96;50.07;;
17594;Laerm;8916;47.086;15.920;2024-01-30T13:58:30;48.95;47.86;50.14;;
17594;Laerm;8916;47.086;15.920;2024-01-30T14:01:01;48.96;47.72;50.28;;